sensor_id;sensor_type;location;lat;lon;timestamp;P1;durP1;ratioP1;P2;durP2;ratioP2
14883;SDS011;7534;50.762;7.000;2022-09-13T00:01:17;3.80;;;3.50;;
14883;SDS011;7534;50.762;7.000;2022-09-13T00:03:43;4.07;;;3.20;;
14883;SDS011;7534;50.762;7.000;2022-09-13T00:06:09;3.70;;;3.40;;
14883;SDS011;7534;50.762;7.000;2022-09-13T00:08:39;3.57;;;3.27;;
14883;SDS011;7534;50.762;7.000;2022-09-13T00:11:06;3.70;;;3.30;;
14883;SDS011;7534;50.762;7.000;2022-09-13T00:13:39;3.87;;;3.27;;
14883;SDS011;7534;50.762;7.000;2022-09-13T00:16:08;3.57;;;3.27;;
14883;SDS011;7534;50.762;7.000;2022-09-13T00:18:40;3.57;;;3.27;;
14883;SDS011;7534;50.762;7.000;2022-09-13T00:21:07;4.63;;;3.47;;
14883;SDS011;7534;50.762;7.000;2022-09-13T00:23:36;3.47;;;3.17;;
14883;SDS011;7534;50.762;7.000;2022-09-13T00:26:07;3.70;;;3.40;;
14883;SDS011;7534;50.762;7.000;2022-09-13T00:28:36;3.40;;;3.00;;
14883;SDS011;7534;50.762;7.000;2022-09-13T00:31:02;3.80;;;3.50;;
14883;SDS011;7534;50.762;7.000;2022-09-13T00:33:30;4.20;;;3.40;;
14883;SDS011;7534;50.762;7.000;2022-09-13T00:35:57;3.73;;;3.43;;
14883;SDS011;7534;50.762;7.000;2022-09-13T00:38:23;4.90;;;4.07;;
14883;SDS011;7534;50.762;7.000;2022-09-13T00:40:49;4.60;;;3.50;;
14883;SDS011;7534;50.762;7.000;2022-09-13T00:43:15;3.50;;;3.20;;
14883;SDS011;7534;50.762;7.000;2022-09-13T00:45:44;4.13;;;3.67;;
14883;SDS011;7534;50.762;7.000;2022-09-13T00:48:19;3.90;;;3.50;;
14883;SDS011;7534;50.762;7.000;2022-09-13T00:50:51;3.93;;;3.63;;
14883;SDS011;7534;50.762;7.000;2022-09-13T00:53:27;3.90;;;3.50;;
14883;SDS011;7534;50.762;7.000;2022-09-13T00:56:41;4.23;;;3.90;;
14883;SDS011;7534;50.762;7.000;2022-09-13T00:58:57;3.57;;;3.27;;
14883;SDS011;7534;50.762;7.000;2022-09-13T01:01:31;4.33;;;3.73;;
14883;SDS011;7534;50.762;7.000;2022-09-13T01:04:04;4.07;;;3.77;;
14883;SDS011;7534;50.762;7.000;2022-09-13T01:06:30;3.93;;;3.53;;
14883;SDS011;7534;50.762;7.000;2022-09-13T01:09:02;3.60;;;3.30;;
14883;SDS011;7534;50.762;7.000;2022-09-13T01:11:32;4.83;;;3.60;;
14883;SDS011;7534;50.762;7.000;2022-09-13T01:14:11;4.63;;;3.53;;
14883;SDS011;7534;50.762;7.000;2022-09-13T01:16:37;4.10;;;3.80;;
14883;SDS011;7534;50.762;7.000;2022-09-13T01:19:03;3.73;;;3.33;;
14883;SDS011;7534;50.762;7.000;2022-09-13T01:35:53;3.77;;;3.47;;
14883;SDS011;7534;50.762;7.000;2022-09-13T01:48:20;4.30;;;3.60;;
14883;SDS011;7534;50.762;7.000;2022-09-13T01:51:17;3.80;;;3.40;;
14883;SDS011;7534;50.762;7.000;2022-09-13T01:54:08;3.63;;;3.27;;
14883;SDS011;7534;50.762;7.000;2022-09-13T02:02:19;4.47;;;3.90;;
14883;SDS011;7534;50.762;7.000;2022-09-13T02:04:58;3.93;;;3.20;;
14883;SDS011;7534;50.762;7.000;2022-09-13T02:07:36;3.97;;;3.37;;
14883;SDS011;7534;50.762;7.000;2022-09-13T02:10:13;5.33;;;3.60;;
14883;SDS011;7534;50.762;7.000;2022-09-13T02:12:49;3.77;;;3.40;;
14883;SDS011;7534;50.762;7.000;2022-09-13T02:15:19;3.53;;;3.23;;
14883;SDS011;7534;50.762;7.000;2022-09-13T02:17:59;3.67;;;3.10;;
14883;SDS011;7534;50.762;7.000;2022-09-13T02:20:34;3.67;;;3.37;;
14883;SDS011;7534;50.762;7.000;2022-09-13T02:23:09;3.97;;;3.57;;
14883;SDS011;7534;50.762;7.000;2022-09-13T02:25:52;3.80;;;3.50;;
14883;SDS011;7534;50.762;7.000;2022-09-13T02:28:22;4.03;;;3.30;;
14883;SDS011;7534;50.762;7.000;2022-09-13T02:31:01;3.77;;;3.23;;
14883;SDS011;7534;50.762;7.000;2022-09-13T02:33:32;3.53;;;3.20;;
14883;SDS011;7534;50.762;7.000;2022-09-13T02:36:07;3.50;;;3.30;;
14883;SDS011;7534;50.762;7.000;2022-09-13T02:38:58;4.00;;;3.60;;
14883;SDS011;7534;50.762;7.000;2022-09-13T02:41:35;3.70;;;3.40;;
14883;SDS011;7534;50.762;7.000;2022-09-13T02:58:32;3.40;;;3.10;;
14883;SDS011;7534;50.762;7.000;2022-09-13T03:01:12;4.23;;;3.17;;
14883;SDS011;7534;50.762;7.000;2022-09-13T03:03:39;3.33;;;3.03;;
14883;SDS011;7534;50.762;7.000;2022-09-13T03:06:05;4.30;;;3.10;;
14883;SDS011;7534;50.762;7.000;2022-09-13T03:08:31;4.17;;;3.10;;
14883;SDS011;7534;50.762;7.000;2022-09-13T03:22:52;3.90;;;3.37;;
14883;SDS011;7534;50.762;7.000;2022-09-13T03:34:07;3.47;;;3.17;;
14883;SDS011;7534;50.762;7.000;2022-09-13T03:37:05;4.20;;;3.30;;
14883;SDS011;7534;50.762;7.000;2022-09-13T03:40:08;3.40;;;3.20;;
14883;SDS011;7534;50.762;7.000;2022-09-13T03:45:15;3.13;;;2.83;;
14883;SDS011;7534;50.762;7.000;2022-09-13T03:47:45;3.43;;;3.07;;
14883;SDS011;7534;50.762;7.000;2022-09-13T03:50:16;4.20;;;3.80;;
14883;SDS011;7534;50.762;7.000;2022-09-13T03:52:47;4.03;;;3.47;;
14883;SDS011;7534;50.762;7.000;2022-09-13T03:55:26;3.40;;;3.00;;
14883;SDS011;7534;50.762;7.000;2022-09-13T03:57:56;3.43;;;3.13;;
14883;SDS011;7534;50.762;7.000;2022-09-13T04:00:22;3.60;;;3.00;;
14883;SDS011;7534;50.762;7.000;2022-09-13T04:02:47;3.60;;;3.30;;
14883;SDS011;7534;50.762;7.000;2022-09-13T04:05:13;3.53;;;3.23;;
14883;SDS011;7534;50.762;7.000;2022-09-13T04:07:39;3.70;;;3.23;;
14883;SDS011;7534;50.762;7.000;2022-09-13T04:10:05;3.38;;;3.17;;
14883;SDS011;7534;50.762;7.000;2022-09-13T04:12:31;3.60;;;3.30;;
14883;SDS011;7534;50.762;7.000;2022-09-13T04:14:57;4.30;;;3.30;;
14883;SDS011;7534;50.762;7.000;2022-09-13T04:17:23;4.10;;;3.70;;
14883;SDS011;7534;50.762;7.000;2022-09-13T04:19:48;3.53;;;3.23;;
14883;SDS011;7534;50.762;7.000;2022-09-13T04:22:14;3.53;;;3.22;;
14883;SDS011;7534;50.762;7.000;2022-09-13T04:24:40;3.97;;;3.57;;
14883;SDS011;7534;50.762;7.000;2022-09-13T04:27:07;3.75;;;3.40;;
14883;SDS011;7534;50.762;7.000;2022-09-13T04:29:33;3.92;;;3.20;;
14883;SDS011;7534;50.762;7.000;2022-09-13T04:31:59;3.50;;;3.20;;
14883;SDS011;7534;50.762;7.000;2022-09-13T04:34:25;3.50;;;3.20;;
14883;SDS011;7534;50.762;7.000;2022-09-13T04:36:51;5.80;;;3.60;;
14883;SDS011;7534;50.762;7.000;2022-09-13T04:39:18;3.00;;;2.80;;
14883;SDS011;7534;50.762;7.000;2022-09-13T04:41:45;3.50;;;3.20;;
14883;SDS011;7534;50.762;7.000;2022-09-13T04:44:12;4.10;;;3.20;;
14883;SDS011;7534;50.762;7.000;2022-09-13T04:46:40;4.05;;;3.20;;
14883;SDS011;7534;50.762;7.000;2022-09-13T04:49:06;3.53;;;3.23;;
14883;SDS011;7534;50.762;7.000;2022-09-13T04:51:34;3.40;;;3.10;;
14883;SDS011;7534;50.762;7.000;2022-09-13T04:54:00;4.20;;;3.17;;
14883;SDS011;7534;50.762;7.000;2022-09-13T04:56:26;3.60;;;3.30;;
14883;SDS011;7534;50.762;7.000;2022-09-13T04:58:54;3.67;;;3.30;;
14883;SDS011;7534;50.762;7.000;2022-09-13T05:01:20;3.47;;;3.17;;
14883;SDS011;7534;50.762;7.000;2022-09-13T05:03:49;4.57;;;3.77;;
14883;SDS011;7534;50.762;7.000;2022-09-13T05:06:16;3.72;;;3.42;;
14883;SDS011;7534;50.762;7.000;2022-09-13T05:08:43;3.75;;;3.45;;
14883;SDS011;7534;50.762;7.000;2022-09-13T05:11:13;4.03;;;3.63;;
14883;SDS011;7534;50.762;7.000;2022-09-13T05:13:39;4.07;;;3.67;;
14883;SDS011;7534;50.762;7.000;2022-09-13T05:16:05;3.95;;;3.17;;
14883;SDS011;7534;50.762;7.000;2022-09-13T05:18:32;3.58;;;3.28;;
14883;SDS011;7534;50.762;7.000;2022-09-13T05:21:01;3.88;;;3.30;;
14883;SDS011;7534;50.762;7.000;2022-09-13T05:23:29;4.80;;;3.70;;
14883;SDS011;7534;50.762;7.000;2022-09-13T05:25:57;4.93;;;3.63;;
14883;SDS011;7534;50.762;7.000;2022-09-13T05:28:29;4.53;;;3.78;;
14883;SDS011;7534;50.762;7.000;2022-09-13T05:30:59;4.35;;;3.20;;
14883;SDS011;7534;50.762;7.000;2022-09-13T05:33:29;3.67;;;3.38;;
14883;SDS011;7534;50.762;7.000;2022-09-13T05:35:57;3.10;;;2.90;;
14883;SDS011;7534;50.762;7.000;2022-09-13T05:38:23;4.45;;;3.22;;
14883;SDS011;7534;50.762;7.000;2022-09-13T05:40:53;3.95;;;3.30;;
14883;SDS011;7534;50.762;7.000;2022-09-13T05:43:22;4.50;;;3.10;;
14883;SDS011;7534;50.762;7.000;2022-09-13T05:46:08;4.30;;;3.00;;
14883;SDS011;7534;50.762;7.000;2022-09-13T05:48:39;4.70;;;3.30;;
14883;SDS011;7534;50.762;7.000;2022-09-13T05:53:41;3.42;;;3.13;;
14883;SDS011;7534;50.762;7.000;2022-09-13T05:56:11;4.40;;;3.00;;
14883;SDS011;7534;50.762;7.000;2022-09-13T05:58:41;3.10;;;2.80;;
14883;SDS011;7534;50.762;7.000;2022-09-13T06:01:09;4.22;;;2.75;;
14883;SDS011;7534;50.762;7.000;2022-09-13T06:03:37;3.88;;;3.08;;
14883;SDS011;7534;50.762;7.000;2022-09-13T06:06:03;5.07;;;3.10;;
14883;SDS011;7534;50.762;7.000;2022-09-13T06:08:31;5.07;;;3.05;;
14883;SDS011;7534;50.762;7.000;2022-09-13T06:11:00;3.60;;;3.30;;
14883;SDS011;7534;50.762;7.000;2022-09-13T06:13:33;3.50;;;3.17;;
14883;SDS011;7534;50.762;7.000;2022-09-13T06:16:00;5.65;;;3.03;;
14883;SDS011;7534;50.762;7.000;2022-09-13T06:18:28;3.20;;;2.97;;
14883;SDS011;7534;50.762;7.000;2022-09-13T06:21:00;3.50;;;3.20;;
14883;SDS011;7534;50.762;7.000;2022-09-13T06:23:35;6.65;;;3.80;;
14883;SDS011;7534;50.762;7.000;2022-09-13T06:26:06;4.28;;;3.15;;
14883;SDS011;7534;50.762;7.000;2022-09-13T06:28:35;3.67;;;3.30;;
14883;SDS011;7534;50.762;7.000;2022-09-13T06:31:09;5.53;;;3.17;;
14883;SDS011;7534;50.762;7.000;2022-09-13T06:33:38;4.53;;;3.42;;
14883;SDS011;7534;50.762;7.000;2022-09-13T06:36:07;3.35;;;3.05;;
14883;SDS011;7534;50.762;7.000;2022-09-13T06:38:34;5.45;;;3.30;;
14883;SDS011;7534;50.762;7.000;2022-09-13T06:41:05;3.50;;;3.10;;
14883;SDS011;7534;50.762;7.000;2022-09-13T06:43:43;4.40;;;3.10;;
14883;SDS011;7534;50.762;7.000;2022-09-13T06:46:11;3.10;;;2.78;;
14883;SDS011;7534;50.762;7.000;2022-09-13T06:48:42;5.13;;;2.85;;
14883;SDS011;7534;50.762;7.000;2022-09-13T06:51:13;3.67;;;2.70;;
14883;SDS011;7534;50.762;7.000;2022-09-13T06:53:42;2.88;;;2.67;;
14883;SDS011;7534;50.762;7.000;2022-09-13T06:56:14;3.35;;;2.92;;
14883;SDS011;7534;50.762;7.000;2022-09-13T06:58:54;3.10;;;2.80;;
14883;SDS011;7534;50.762;7.000;2022-09-13T07:01:26;3.42;;;2.80;;
14883;SDS011;7534;50.762;7.000;2022-09-13T07:03:58;4.32;;;2.92;;
14883;SDS011;7534;50.762;7.000;2022-09-13T07:06:29;3.00;;;2.80;;
14883;SDS011;7534;50.762;7.000;2022-09-13T07:08:58;4.47;;;2.97;;
14883;SDS011;7534;50.762;7.000;2022-09-13T07:11:27;3.28;;;2.97;;
14883;SDS011;7534;50.762;7.000;2022-09-13T07:13:58;3.42;;;3.00;;
14883;SDS011;7534;50.762;7.000;2022-09-13T07:16:29;5.00;;;3.35;;
14883;SDS011;7534;50.762;7.000;2022-09-13T07:18:58;4.60;;;3.28;;
14883;SDS011;7534;50.762;7.000;2022-09-13T07:21:26;4.10;;;3.50;;
14883;SDS011;7534;50.762;7.000;2022-09-13T07:23:54;3.10;;;2.78;;
14883;SDS011;7534;50.762;7.000;2022-09-13T07:26:21;3.47;;;3.17;;
14883;SDS011;7534;50.762;7.000;2022-09-13T07:28:49;3.05;;;2.75;;
14883;SDS011;7534;50.762;7.000;2022-09-13T07:31:22;5.88;;;3.10;;
14883;SDS011;7534;50.762;7.000;2022-09-13T07:33:54;5.30;;;2.80;;
14883;SDS011;7534;50.762;7.000;2022-09-13T07:36:26;3.63;;;3.00;;
14883;SDS011;7534;50.762;7.000;2022-09-13T07:38:53;3.03;;;2.70;;
14883;SDS011;7534;50.762;7.000;2022-09-13T07:41:20;3.85;;;3.30;;
14883;SDS011;7534;50.762;7.000;2022-09-13T07:43:49;3.53;;;2.50;;
14883;SDS011;7534;50.762;7.000;2022-09-13T07:46:23;4.63;;;3.17;;
14883;SDS011;7534;50.762;7.000;2022-09-13T07:48:54;3.05;;;2.65;;
14883;SDS011;7534;50.762;7.000;2022-09-13T07:51:39;4.25;;;2.75;;
14883;SDS011;7534;50.762;7.000;2022-09-13T07:54:11;3.40;;;2.70;;
14883;SDS011;7534;50.762;7.000;2022-09-13T07:56:41;3.53;;;2.88;;
14883;SDS011;7534;50.762;7.000;2022-09-13T07:59:14;4.38;;;2.90;;
14883;SDS011;7534;50.762;7.000;2022-09-13T08:01:42;3.13;;;2.50;;
14883;SDS011;7534;50.762;7.000;2022-09-13T08:04:14;3.60;;;2.65;;
14883;SDS011;7534;50.762;7.000;2022-09-13T08:06:47;4.82;;;2.80;;
14883;SDS011;7534;50.762;7.000;2022-09-13T08:09:14;3.17;;;2.85;;
14883;SDS011;7534;50.762;7.000;2022-09-13T08:11:45;4.50;;;2.67;;
14883;SDS011;7534;50.762;7.000;2022-09-13T08:14:16;3.90;;;2.85;;
14883;SDS011;7534;50.762;7.000;2022-09-13T08:16:44;3.65;;;2.67;;
14883;SDS011;7534;50.762;7.000;2022-09-13T08:19:14;7.20;;;3.03;;
14883;SDS011;7534;50.762;7.000;2022-09-13T08:21:42;4.85;;;2.85;;
14883;SDS011;7534;50.762;7.000;2022-09-13T08:24:16;4.80;;;2.97;;
14883;SDS011;7534;50.762;7.000;2022-09-13T08:26:45;3.13;;;2.83;;
14883;SDS011;7534;50.762;7.000;2022-09-13T08:29:11;3.10;;;2.90;;
14883;SDS011;7534;50.762;7.000;2022-09-13T08:31:39;3.22;;;2.92;;
14883;SDS011;7534;50.762;7.000;2022-09-13T08:34:05;3.83;;;2.75;;
14883;SDS011;7534;50.762;7.000;2022-09-13T08:36:35;4.85;;;2.72;;
14883;SDS011;7534;50.762;7.000;2022-09-13T08:39:01;6.03;;;3.13;;
14883;SDS011;7534;50.762;7.000;2022-09-13T08:41:51;7.15;;;3.05;;
14883;SDS011;7534;50.762;7.000;2022-09-13T08:44:51;4.22;;;3.03;;
14883;SDS011;7534;50.762;7.000;2022-09-13T08:50:40;6.28;;;2.63;;
14883;SDS011;7534;50.762;7.000;2022-09-13T08:53:15;4.03;;;2.50;;
14883;SDS011;7534;50.762;7.000;2022-09-13T08:56:09;4.68;;;2.42;;
14883;SDS011;7534;50.762;7.000;2022-09-13T09:05:00;3.63;;;2.60;;
14883;SDS011;7534;50.762;7.000;2022-09-13T09:07:36;4.47;;;2.67;;
14883;SDS011;7534;50.762;7.000;2022-09-13T09:10:17;2.67;;;2.47;;
14883;SDS011;7534;50.762;7.000;2022-09-13T09:12:56;2.40;;;2.20;;
14883;SDS011;7534;50.762;7.000;2022-09-13T09:15:32;2.78;;;2.53;;
14883;SDS011;7534;50.762;7.000;2022-09-13T09:21:09;2.97;;;2.50;;
14883;SDS011;7534;50.762;7.000;2022-09-13T09:23:48;3.58;;;2.55;;
14883;SDS011;7534;50.762;7.000;2022-09-13T09:26:26;2.60;;;2.20;;
14883;SDS011;7534;50.762;7.000;2022-09-13T09:31:38;3.58;;;2.30;;
14883;SDS011;7534;50.762;7.000;2022-09-13T09:40:58;2.80;;;2.40;;
14883;SDS011;7534;50.762;7.000;2022-09-13T09:43:36;4.60;;;2.42;;
14883;SDS011;7534;50.762;7.000;2022-09-13T09:46:10;2.20;;;2.10;;
14883;SDS011;7534;50.762;7.000;2022-09-13T09:48:50;2.50;;;2.30;;
14883;SDS011;7534;50.762;7.000;2022-09-13T09:51:20;3.50;;;1.98;;
14883;SDS011;7534;50.762;7.000;2022-09-13T09:53:53;2.35;;;2.15;;
14883;SDS011;7534;50.762;7.000;2022-09-13T09:56:30;6.63;;;2.22;;
14883;SDS011;7534;50.762;7.000;2022-09-13T09:58:58;2.10;;;2.00;;
14883;SDS011;7534;50.762;7.000;2022-09-13T10:01:28;2.30;;;2.13;;
14883;SDS011;7534;50.762;7.000;2022-09-13T10:04:17;2.50;;;1.92;;
14883;SDS011;7534;50.762;7.000;2022-09-13T10:06:46;4.05;;;2.03;;
14883;SDS011;7534;50.762;7.000;2022-09-13T10:09:19;4.40;;;2.45;;
14883;SDS011;7534;50.762;7.000;2022-09-13T10:11:51;3.17;;;2.13;;
14883;SDS011;7534;50.762;7.000;2022-09-13T10:17:19;2.78;;;1.98;;
14883;SDS011;7534;50.762;7.000;2022-09-13T10:22:32;2.83;;;2.15;;
14883;SDS011;7534;50.762;7.000;2022-09-13T10:25:12;2.25;;;2.05;;
14883;SDS011;7534;50.762;7.000;2022-09-13T10:27:46;4.18;;;2.10;;
14883;SDS011;7534;50.762;7.000;2022-09-13T10:33:35;2.30;;;2.10;;
14883;SDS011;7534;50.762;7.000;2022-09-13T10:36:24;3.55;;;2.20;;
14883;SDS011;7534;50.762;7.000;2022-09-13T10:39:05;4.05;;;2.00;;
14883;SDS011;7534;50.762;7.000;2022-09-13T10:41:41;2.65;;;1.80;;
14883;SDS011;7534;50.762;7.000;2022-09-13T10:47:03;2.08;;;1.98;;
14883;SDS011;7534;50.762;7.000;2022-09-13T10:49:49;3.75;;;1.88;;
14883;SDS011;7534;50.762;7.000;2022-09-13T10:52:41;2.90;;;2.00;;
14883;SDS011;7534;50.762;7.000;2022-09-13T10:57:51;2.10;;;1.90;;
14883;SDS011;7534;50.762;7.000;2022-09-13T11:00:20;2.65;;;1.90;;
14883;SDS011;7534;50.762;7.000;2022-09-13T11:06:01;3.28;;;2.05;;
14883;SDS011;7534;50.762;7.000;2022-09-13T11:12:02;4.18;;;1.98;;
14883;SDS011;7534;50.762;7.000;2022-09-13T11:29:32;2.80;;;2.00;;
14883;SDS011;7534;50.762;7.000;2022-09-13T11:43:24;2.22;;;2.08;;
14883;SDS011;7534;50.762;7.000;2022-09-13T11:49:18;1.83;;;1.70;;
14883;SDS011;7534;50.762;7.000;2022-09-13T11:57:51;2.80;;;1.90;;
14883;SDS011;7534;50.762;7.000;2022-09-13T12:00:28;2.00;;;1.90;;
14883;SDS011;7534;50.762;7.000;2022-09-13T12:03:41;2.17;;;1.92;;
14883;SDS011;7534;50.762;7.000;2022-09-13T12:06:22;2.70;;;2.00;;
14883;SDS011;7534;50.762;7.000;2022-09-13T12:09:05;7.43;;;2.00;;
14883;SDS011;7534;50.762;7.000;2022-09-13T12:12:05;5.38;;;2.15;;
14883;SDS011;7534;50.762;7.000;2022-09-13T12:14:45;2.83;;;2.13;;
14883;SDS011;7534;50.762;7.000;2022-09-13T12:17:56;2.30;;;2.05;;
14883;SDS011;7534;50.762;7.000;2022-09-13T12:20:38;3.20;;;1.98;;
14883;SDS011;7534;50.762;7.000;2022-09-13T12:23:22;2.55;;;1.80;;
14883;SDS011;7534;50.762;7.000;2022-09-13T12:25:59;2.45;;;1.95;;
14883;SDS011;7534;50.762;7.000;2022-09-13T12:31:41;2.10;;;1.90;;
14883;SDS011;7534;50.762;7.000;2022-09-13T12:34:08;2.70;;;1.90;;
14883;SDS011;7534;50.762;7.000;2022-09-13T12:37:07;2.58;;;1.80;;
14883;SDS011;7534;50.762;7.000;2022-09-13T12:42:46;3.83;;;1.88;;
14883;SDS011;7534;50.762;7.000;2022-09-13T12:51:59;1.83;;;1.70;;
14883;SDS011;7534;50.762;7.000;2022-09-13T12:57:56;2.95;;;2.00;;
14883;SDS011;7534;50.762;7.000;2022-09-13T13:03:52;2.47;;;1.75;;
14883;SDS011;7534;50.762;7.000;2022-09-13T13:06:56;4.20;;;2.03;;
14883;SDS011;7534;50.762;7.000;2022-09-13T13:09:41;3.83;;;1.67;;
14883;SDS011;7534;50.762;7.000;2022-09-13T13:12:29;4.43;;;2.08;;
14883;SDS011;7534;50.762;7.000;2022-09-13T13:34:00;3.47;;;1.60;;
14883;SDS011;7534;50.762;7.000;2022-09-13T13:37:01;1.70;;;1.60;;
14883;SDS011;7534;50.762;7.000;2022-09-13T13:42:37;2.22;;;1.70;;
14883;SDS011;7534;50.762;7.000;2022-09-13T13:45:17;2.78;;;1.88;;
14883;SDS011;7534;50.762;7.000;2022-09-13T13:48:05;3.38;;;2.00;;
14883;SDS011;7534;50.762;7.000;2022-09-13T13:51:01;5.90;;;1.90;;
14883;SDS011;7534;50.762;7.000;2022-09-13T13:53:39;3.70;;;1.60;;
14883;SDS011;7534;50.762;7.000;2022-09-13T13:56:31;1.90;;;1.70;;
14883;SDS011;7534;50.762;7.000;2022-09-13T13:59:26;3.17;;;1.77;;
14883;SDS011;7534;50.762;7.000;2022-09-13T14:01:57;3.33;;;1.80;;
14883;SDS011;7534;50.762;7.000;2022-09-13T14:04:41;3.55;;;1.70;;
14883;SDS011;7534;50.762;7.000;2022-09-13T14:10:49;2.30;;;1.80;;
14883;SDS011;7534;50.762;7.000;2022-09-13T14:13:57;2.25;;;1.70;;
14883;SDS011;7534;50.762;7.000;2022-09-13T14:19:43;1.60;;;1.50;;
14883;SDS011;7534;50.762;7.000;2022-09-13T14:24:45;3.78;;;1.42;;
14883;SDS011;7534;50.762;7.000;2022-09-13T14:27:18;2.78;;;1.80;;
14883;SDS011;7534;50.762;7.000;2022-09-13T14:29:57;4.35;;;1.70;;
14883;SDS011;7534;50.762;7.000;2022-09-13T14:32:29;5.30;;;2.00;;
14883;SDS011;7534;50.762;7.000;2022-09-13T14:35:06;3.15;;;1.83;;
14883;SDS011;7534;50.762;7.000;2022-09-13T14:37:54;2.78;;;1.80;;
14883;SDS011;7534;50.762;7.000;2022-09-13T14:40:33;1.70;;;1.60;;
14883;SDS011;7534;50.762;7.000;2022-09-13T14:42:59;2.20;;;1.40;;
14883;SDS011;7534;50.762;7.000;2022-09-13T14:45:32;1.85;;;1.60;;
14883;SDS011;7534;50.762;7.000;2022-09-13T14:50:47;1.50;;;1.40;;
14883;SDS011;7534;50.762;7.000;2022-09-13T14:54:17;1.42;;;1.38;;
14883;SDS011;7534;50.762;7.000;2022-09-13T14:56:56;2.47;;;1.52;;
14883;SDS011;7534;50.762;7.000;2022-09-13T14:59:26;1.50;;;1.40;;
14883;SDS011;7534;50.762;7.000;2022-09-13T15:02:05;1.50;;;1.40;;
14883;SDS011;7534;50.762;7.000;2022-09-13T15:04:41;2.00;;;1.42;;
14883;SDS011;7534;50.762;7.000;2022-09-13T15:07:19;2.25;;;1.40;;
14883;SDS011;7534;50.762;7.000;2022-09-13T15:15:35;1.85;;;1.50;;
14883;SDS011;7534;50.762;7.000;2022-09-13T15:18:04;2.08;;;1.50;;
14883;SDS011;7534;50.762;7.000;2022-09-13T15:20:53;2.55;;;1.50;;
14883;SDS011;7534;50.762;7.000;2022-09-13T15:23:25;1.42;;;1.23;;
14883;SDS011;7534;50.762;7.000;2022-09-13T15:28:56;1.98;;;1.50;;
14883;SDS011;7534;50.762;7.000;2022-09-13T15:31:27;1.83;;;1.70;;
14883;SDS011;7534;50.762;7.000;2022-09-13T15:39:41;2.75;;;1.55;;
14883;SDS011;7534;50.762;7.000;2022-09-13T15:42:09;3.63;;;1.50;;
14883;SDS011;7534;50.762;7.000;2022-09-13T15:44:35;5.15;;;1.83;;
14883;SDS011;7534;50.762;7.000;2022-09-13T15:47:01;2.75;;;1.70;;
14883;SDS011;7534;50.762;7.000;2022-09-13T15:49:33;2.17;;;1.90;;
14883;SDS011;7534;50.762;7.000;2022-09-13T15:52:04;2.15;;;1.80;;
14883;SDS011;7534;50.762;7.000;2022-09-13T15:54:38;3.10;;;2.00;;
14883;SDS011;7534;50.762;7.000;2022-09-13T15:57:12;3.15;;;2.10;;
14883;SDS011;7534;50.762;7.000;2022-09-13T15:59:53;3.42;;;2.13;;
14883;SDS011;7534;50.762;7.000;2022-09-13T16:02:24;3.20;;;1.95;;
14883;SDS011;7534;50.762;7.000;2022-09-13T16:04:54;5.22;;;2.00;;
14883;SDS011;7534;50.762;7.000;2022-09-13T16:07:20;6.45;;;2.20;;
14883;SDS011;7534;50.762;7.000;2022-09-13T16:09:48;2.88;;;2.00;;
14883;SDS011;7534;50.762;7.000;2022-09-13T16:12:14;3.90;;;1.90;;
14883;SDS011;7534;50.762;7.000;2022-09-13T16:14:42;3.00;;;2.33;;
14883;SDS011;7534;50.762;7.000;2022-09-13T16:17:19;3.47;;;2.20;;
14883;SDS011;7534;50.762;7.000;2022-09-13T16:19:51;2.30;;;2.10;;
14883;SDS011;7534;50.762;7.000;2022-09-13T16:22:18;2.95;;;2.30;;
14883;SDS011;7534;50.762;7.000;2022-09-13T16:24:44;4.28;;;2.30;;
14883;SDS011;7534;50.762;7.000;2022-09-13T16:27:13;4.32;;;2.20;;
14883;SDS011;7534;50.762;7.000;2022-09-13T16:29:42;3.97;;;2.63;;
14883;SDS011;7534;50.762;7.000;2022-09-13T16:32:08;3.10;;;2.55;;
14883;SDS011;7534;50.762;7.000;2022-09-13T16:34:34;2.70;;;2.50;;
14883;SDS011;7534;50.762;7.000;2022-09-13T16:37:00;3.97;;;2.92;;
14883;SDS011;7534;50.762;7.000;2022-09-13T16:39:25;4.50;;;2.63;;
14883;SDS011;7534;50.762;7.000;2022-09-13T16:41:52;4.40;;;2.88;;
14883;SDS011;7534;50.762;7.000;2022-09-13T16:44:18;3.45;;;2.35;;
14883;SDS011;7534;50.762;7.000;2022-09-13T16:46:44;3.90;;;2.50;;
14883;SDS011;7534;50.762;7.000;2022-09-13T16:49:11;5.85;;;2.72;;
14883;SDS011;7534;50.762;7.000;2022-09-13T16:51:37;3.05;;;2.75;;
14883;SDS011;7534;50.762;7.000;2022-09-13T16:54:03;4.65;;;3.20;;
14883;SDS011;7534;50.762;7.000;2022-09-13T16:56:30;4.18;;;3.05;;
14883;SDS011;7534;50.762;7.000;2022-09-13T16:58:56;4.13;;;3.20;;
14883;SDS011;7534;50.762;7.000;2022-09-13T17:01:23;4.40;;;3.20;;
14883;SDS011;7534;50.762;7.000;2022-09-13T17:03:52;4.63;;;3.78;;
14883;SDS011;7534;50.762;7.000;2022-09-13T17:06:19;3.72;;;3.40;;
14883;SDS011;7534;50.762;7.000;2022-09-13T17:08:52;5.22;;;3.70;;
14883;SDS011;7534;50.762;7.000;2022-09-13T17:11:22;4.57;;;3.28;;
14883;SDS011;7534;50.762;7.000;2022-09-13T17:13:51;4.78;;;3.55;;
14883;SDS011;7534;50.762;7.000;2022-09-13T17:18:51;4.65;;;3.70;;
14883;SDS011;7534;50.762;7.000;2022-09-13T17:21:17;5.90;;;3.83;;
14883;SDS011;7534;50.762;7.000;2022-09-13T17:23:43;5.15;;;4.30;;
14883;SDS011;7534;50.762;7.000;2022-09-13T17:26:09;4.38;;;3.95;;
14883;SDS011;7534;50.762;7.000;2022-09-13T17:28:35;6.20;;;4.13;;
14883;SDS011;7534;50.762;7.000;2022-09-13T17:31:01;4.82;;;4.25;;
14883;SDS011;7534;50.762;7.000;2022-09-13T17:33:27;6.57;;;4.20;;
14883;SDS011;7534;50.762;7.000;2022-09-13T17:35:59;5.38;;;4.43;;
14883;SDS011;7534;50.762;7.000;2022-09-13T17:38:32;5.80;;;4.93;;
14883;SDS011;7534;50.762;7.000;2022-09-13T17:41:02;6.20;;;4.90;;
14883;SDS011;7534;50.762;7.000;2022-09-13T17:43:32;7.15;;;4.68;;
14883;SDS011;7534;50.762;7.000;2022-09-13T17:46:06;5.70;;;5.03;;
14883;SDS011;7534;50.762;7.000;2022-09-13T17:48:36;5.32;;;4.75;;
14883;SDS011;7534;50.762;7.000;2022-09-13T17:51:04;5.75;;;4.60;;
14883;SDS011;7534;50.762;7.000;2022-09-13T17:53:44;6.35;;;4.63;;
14883;SDS011;7534;50.762;7.000;2022-09-13T17:56:16;4.97;;;4.47;;
14883;SDS011;7534;50.762;7.000;2022-09-13T17:58:53;6.80;;;4.70;;
14883;SDS011;7534;50.762;7.000;2022-09-13T18:01:21;5.00;;;4.47;;
14883;SDS011;7534;50.762;7.000;2022-09-13T18:03:47;6.78;;;4.78;;
14883;SDS011;7534;50.762;7.000;2022-09-13T18:06:13;5.53;;;4.00;;
14883;SDS011;7534;50.762;7.000;2022-09-13T18:08:39;4.05;;;3.65;;
14883;SDS011;7534;50.762;7.000;2022-09-13T18:11:07;4.57;;;4.18;;
14883;SDS011;7534;50.762;7.000;2022-09-13T18:13:37;6.63;;;4.03;;
14883;SDS011;7534;50.762;7.000;2022-09-13T18:16:08;4.43;;;3.90;;
14883;SDS011;7534;50.762;7.000;2022-09-13T18:18:43;3.97;;;3.47;;
14883;SDS011;7534;50.762;7.000;2022-09-13T18:21:10;3.80;;;3.42;;
14883;SDS011;7534;50.762;7.000;2022-09-13T18:23:39;3.75;;;3.40;;
14883;SDS011;7534;50.762;7.000;2022-09-13T18:26:12;3.80;;;3.50;;
14883;SDS011;7534;50.762;7.000;2022-09-13T18:28:41;3.92;;;3.45;;
14883;SDS011;7534;50.762;7.000;2022-09-13T18:31:09;3.92;;;3.40;;
14883;SDS011;7534;50.762;7.000;2022-09-13T18:33:45;6.07;;;3.70;;
14883;SDS011;7534;50.762;7.000;2022-09-13T18:36:13;4.07;;;3.67;;
14883;SDS011;7534;50.762;7.000;2022-09-13T18:38:42;3.42;;;3.13;;
14883;SDS011;7534;50.762;7.000;2022-09-13T18:41:14;3.38;;;3.03;;
14883;SDS011;7534;50.762;7.000;2022-09-13T18:43:42;6.80;;;3.47;;
14883;SDS011;7534;50.762;7.000;2022-09-13T18:46:11;5.50;;;3.80;;
14883;SDS011;7534;50.762;7.000;2022-09-13T18:48:41;4.45;;;4.00;;
14883;SDS011;7534;50.762;7.000;2022-09-13T18:51:09;6.45;;;4.07;;
14883;SDS011;7534;50.762;7.000;2022-09-13T18:53:38;4.90;;;3.72;;
14883;SDS011;7534;50.762;7.000;2022-09-13T18:56:05;5.43;;;3.90;;
14883;SDS011;7534;50.762;7.000;2022-09-13T18:58:34;10.63;;;3.83;;
14883;SDS011;7534;50.762;7.000;2022-09-13T19:01:03;5.43;;;4.05;;
14883;SDS011;7534;50.762;7.000;2022-09-13T19:03:32;3.92;;;3.53;;
14883;SDS011;7534;50.762;7.000;2022-09-13T19:06:09;7.65;;;3.92;;
14883;SDS011;7534;50.762;7.000;2022-09-13T19:08:39;4.00;;;3.58;;
14883;SDS011;7534;50.762;7.000;2022-09-13T19:11:05;5.70;;;3.67;;
14883;SDS011;7534;50.762;7.000;2022-09-13T19:13:32;5.28;;;4.00;;